Time;durP1;ratioP1;P1;durP2;ratioP2;P2;SDS_P1;SDS_P2;PMS_P1;PMS_P2;Temp;Humidity;BMP_temperature;BMP_pressure;BME280_temperature;BME280_humidity;BME280_pressure;Samples;Min_cycle;Max_cycle;Signal;HPM_P1;HPM_P2
2022/02/11 00:01:03;;;;;;;11.43;2.58;;;;;;;4.61;100.00;102266.34;5039809;28;20053;-73
2022/02/11 00:06:34;;;;;;;10.10;2.17;;;;;;;4.62;100.00;102262.84;5040065;28;20223;-73
2022/02/11 00:09:13;;;;;;;8.68;2.45;;;;;;;4.69;100.00;102266.47;5060553;28;20081;-73
2022/02/11 00:11:44;;;;;;;18.50;3.30;;;;;;;4.72;100.00;102258.59;5037794;28;20049;-73
2022/02/11 00:14:21;;;;;;;12.95;2.65;;;;;;;4.66;100.00;102258.47;5035780;28;21254;-73
2022/02/11 00:16:49;;;;;;;11.80;2.13;;;;;;;4.68;100.00;102255.00;5039580;28;20370;-76
2022/02/11 00:19:17;;;;;;;7.93;2.65;;;;;;;4.70;100.00;102259.41;5036852;28;20139;-77
2022/02/11 00:21:45;;;;;;;11.95;2.85;;;;;;;4.65;100.00;102262.00;5037254;28;20197;-76
2022/02/11 00:24:15;;;;;;;11.13;3.05;;;;;;;4.66;100.00;102266.41;5038391;28;20049;-76
2022/02/11 00:26:51;;;;;;;9.90;2.75;;;;;;;4.64;100.00;102260.22;5035800;28;20158;-76
2022/02/11 00:30:10;;;;;;;7.50;2.47;;;;;;;4.65;100.00;102268.19;5040042;28;20059;-76
2022/02/11 00:32:34;;;;;;;9.60;2.53;;;;;;;4.67;100.00;102265.56;5035989;28;20051;-76
2022/02/11 00:35:12;;;;;;;10.05;2.55;;;;;;;4.69;100.00;102277.03;5036949;28;20574;-73
2022/02/11 00:37:41;;;;;;;10.48;3.00;;;;;;;4.71;100.00;102264.72;5038035;28;20086;-74
2022/02/11 00:40:36;;;;;;;9.02;2.40;;;;;;;4.71;100.00;102270.00;5035733;28;20575;-74
2022/02/11 00:46:15;;;;;;;9.23;3.10;;;;;;;4.64;100.00;102262.88;5026117;28;20105;-76
2022/02/11 01:02:59;;;;;;;11.27;3.05;;;;;;;4.79;100.00;102241.06;5037232;28;20212;-77
2022/02/11 01:05:27;;;;;;;9.93;3.20;;;;;;;4.80;100.00;102246.38;5036916;28;20294;-76
2022/02/11 01:07:55;;;;;;;9.60;2.85;;;;;;;4.85;100.00;102252.59;5036524;28;20139;-76
2022/02/11 01:10:24;;;;;;;9.63;3.67;;;;;;;4.88;100.00;102256.16;5034410;28;20049;-77
2022/02/11 01:12:55;;;;;;;17.05;3.72;;;;;;;4.84;100.00;102242.00;5036733;28;20052;-77
2022/02/11 01:15:24;;;;;;;8.48;2.92;;;;;;;4.87;100.00;102247.34;5037870;28;20061;-76
2022/02/11 01:17:56;;;;;;;8.63;3.60;;;;;;;4.89;100.00;102249.97;5038135;28;20080;-77
2022/02/11 01:20:39;;;;;;;13.75;3.05;;;;;;;4.91;100.00;102258.84;5036456;28;20148;-77
2022/02/11 01:23:17;;;;;;;11.95;2.95;;;;;;;4.86;100.00;102254.38;5037726;28;20048;-76
2022/02/11 01:26:03;;;;;;;15.90;3.72;;;;;;;4.83;100.00;102248.16;5036552;28;20051;-77
2022/02/11 01:28:46;;;;;;;7.72;2.92;;;;;;;4.80;100.00;102253.38;5038206;28;20061;-78
2022/02/11 01:31:21;;;;;;;13.32;3.17;;;;;;;4.72;100.00;102263.00;5038811;28;20056;-79
2022/02/11 01:34:13;;;;;;;10.60;3.67;;;;;;;4.72;100.00;102255.06;5036275;28;20080;-78
2022/02/11 01:37:00;;;;;;;11.80;3.55;;;;;;;4.65;100.00;102262.88;5037573;28;20048;-78
2022/02/11 01:45:24;;;;;;;18.95;3.95;;;;;;;4.71;100.00;102275.31;5035228;28;20053;-77
2022/02/11 01:48:32;;;;;;;16.90;3.13;;;;;;;4.80;100.00;102280.75;5036502;28;20057;-77
2022/02/11 01:53:45;;;;;;;14.55;3.15;;;;;;;4.85;100.00;102275.50;5037384;28;20128;-77
2022/02/11 01:56:31;;;;;;;7.97;2.38;;;;;;;4.85;100.00;102289.63;5038293;28;20115;-76
2022/02/11 02:11:18;;;;;;;10.55;3.28;;;;;;;5.01;100.00;102288.09;5039452;28;20045;-77
2022/02/11 02:20:21;;;;;;;20.58;3.60;;;;;;;5.03;100.00;102293.41;4979670;28;20698;-71
2022/02/11 02:22:56;;;;;;;10.77;2.72;;;;;;;5.07;100.00;102289.03;4977978;28;20061;-71
2022/02/11 02:25:36;;;;;;;15.40;3.53;;;;;;;5.02;100.00;102297.81;5032856;28;20441;-69
2022/02/11 02:28:50;;;;;;;13.20;2.65;;;;;;;5.03;100.00;102296.94;5068000;28;20060;-70
2022/02/11 02:34:47;;;;;;;10.68;2.28;;;;;;;5.01;100.00;102296.03;5036420;28;20052;-78
2022/02/11 02:37:23;;;;;;;9.25;2.58;;;;;;;4.96;100.00;102318.88;5038535;28;20077;-77
2022/02/11 02:56:42;;;;;;;11.40;3.25;;;;;;;4.99;100.00;102313.63;5043224;28;20060;-76
2022/02/11 02:59:33;;;;;;;19.00;3.78;;;;;;;5.04;100.00;102319.00;5037270;28;20147;-71
2022/02/11 03:02:11;;;;;;;16.88;2.88;;;;;;;4.91;100.00;102325.88;5043009;28;20059;-71
2022/02/11 03:16:55;;;;;;;10.88;3.22;;;;;;;4.62;100.00;102343.91;5037842;28;20084;-71
2022/02/11 03:56:14;;;;;;;18.60;3.25;;;;;;;4.40;100.00;102387.59;5007021;28;20122;-69
2022/02/11 04:55:22;;;;;;;24.85;4.13;;;;;;;4.54;100.00;102528.84;5039085;28;20100;-77
2022/02/11 05:00:39;;;;;;;19.02;3.40;;;;;;;4.52;100.00;102529.69;5036330;28;20128;-77
2022/02/11 05:03:09;;;;;;;16.60;4.63;;;;;;;4.53;100.00;102526.16;5037595;28;20061;-77
2022/02/11 05:05:49;;;;;;;13.52;3.35;;;;;;;4.49;100.00;102533.16;5038758;28;20084;-77
2022/02/11 05:08:18;;;;;;;15.85;3.10;;;;;;;4.46;100.00;102539.28;5038386;28;20648;-77
2022/02/11 05:10:46;;;;;;;21.75;3.38;;;;;;;4.47;100.00;102541.03;5037170;28;20060;-77
2022/02/11 05:13:16;;;;;;;12.70;4.10;;;;;;;4.51;100.00;102530.53;5037833;28;20052;-79
2022/02/11 05:15:44;;;;;;;12.55;3.83;;;;;;;4.53;100.00;102544.66;5039747;28;20044;-77
2022/02/11 05:18:13;;;;;;;12.20;3.15;;;;;;;4.45;100.00;102547.19;5040406;28;20098;-78
2022/02/11 05:20:42;;;;;;;12.02;3.13;;;;;;;4.41;100.00;102562.09;5035950;28;20486;-76
2022/02/11 05:23:11;;;;;;;18.23;3.13;;;;;;;4.36;100.00;102571.66;5036072;28;20509;-78
2022/02/11 05:25:43;;;;;;;18.63;3.78;;;;;;;4.33;100.00;102583.94;5037253;28;20049;-76
2022/02/11 05:28:12;;;;;;;16.95;3.60;;;;;;;4.33;100.00;102587.47;5037013;28;20509;-77
2022/02/11 05:30:43;;;;;;;17.23;2.88;;;;;;;4.39;100.00;102590.25;5036021;28;20049;-78
2022/02/11 05:33:12;;;;;;;21.30;3.55;;;;;;;4.40;100.00;102601.69;5037145;28;20680;-77
2022/02/11 05:35:40;;;;;;;18.65;3.08;;;;;;;4.44;100.00;102598.25;5035561;28;20127;-76
2022/02/11 05:38:08;;;;;;;17.98;3.20;;;;;;;4.52;100.00;102599.31;5039498;28;20164;-77
2022/02/11 05:40:36;;;;;;;15.57;3.80;;;;;;;4.60;100.00;102623.28;5038363;28;20056;-76
2022/02/11 05:43:05;;;;;;;18.25;3.13;;;;;;;4.54;100.00;102637.25;5037425;28;20098;-76
2022/02/11 05:45:33;;;;;;;15.38;3.35;;;;;;;4.38;100.00;102651.00;5039108;28;20115;-76
2022/02/11 05:48:02;;;;;;;7.25;2.20;;;;;;;4.12;100.00;102651.28;5041899;28;20059;-78
2022/02/11 05:50:30;;;;;;;10.75;2.60;;;;;;;3.95;100.00;102656.19;5040502;28;20401;-77
2022/02/11 05:53:05;;;;;;;13.02;2.22;;;;;;;3.79;100.00;102662.81;5041884;28;20044;-76
2022/02/11 05:55:34;;;;;;;11.15;3.40;;;;;;;3.79;100.00;102648.72;5038911;28;20528;-78
2022/02/11 05:58:02;;;;;;;8.10;2.53;;;;;;;3.75;100.00;102653.03;5043620;28;20129;-77
2022/02/11 06:00:30;;;;;;;21.73;3.58;;;;;;;3.66;100.00;102653.69;5040718;28;20068;-78
2022/02/11 06:02:59;;;;;;;18.35;3.67;;;;;;;3.66;100.00;102652.78;5041670;28;20049;-78
2022/02/11 06:05:28;;;;;;;18.00;3.58;;;;;;;3.68;100.00;102638.78;5041102;28;20143;-78
2022/02/11 06:07:56;;;;;;;9.93;2.60;;;;;;;3.70;100.00;102647.63;5040544;28;20103;-78
2022/02/11 06:10:24;;;;;;;16.75;2.92;;;;;;;3.74;100.00;102656.53;5040532;28;20294;-78
2022/02/11 06:12:52;;;;;;;11.35;3.20;;;;;;;3.69;100.00;102663.44;5040648;28;20155;-76
2022/02/11 06:15:23;;;;;;;19.88;3.50;;;;;;;3.70;100.00;102665.22;5037791;28;20045;-77
2022/02/11 06:17:50;;;;;;;24.52;3.42;;;;;;;3.72;100.00;102669.69;5040525;28;20061;-76
2022/02/11 06:20:23;;;;;;;14.32;2.92;;;;;;;3.71;100.00;102672.28;5040445;28;20079;-77
2022/02/11 06:22:52;;;;;;;21.80;4.75;;;;;;;3.79;100.00;102668.09;5041598;28;20147;-77
2022/02/11 06:25:21;;;;;;;15.32;3.28;;;;;;;3.81;100.00;102684.84;5043428;28;20115;-77
2022/02/11 06:27:49;;;;;;;26.15;3.75;;;;;;;3.86;100.00;102690.25;5040658;28;20449;-77
2022/02/11 06:30:17;;;;;;;19.95;4.60;;;;;;;3.95;100.00;102687.88;5040768;28;20055;-76
2022/02/11 06:32:45;;;;;;;18.95;4.07;;;;;;;3.99;100.00;102699.41;5038914;28;20095;-78
2022/02/11 06:35:14;;;;;;;19.35;4.30;;;;;;;3.92;100.00;102701.88;5040347;28;20057;-78
2022/02/11 06:37:45;;;;;;;14.85;4.03;;;;;;;4.02;100.00;102712.66;5041237;28;20064;-78
2022/02/11 06:40:17;;;;;;;18.67;3.55;;;;;;;4.14;100.00;102730.56;5020001;28;20557;-78
2022/02/11 06:42:45;;;;;;;15.25;5.30;;;;;;;4.20;100.00;102726.34;5020187;28;20996;-79
2022/02/11 06:45:14;;;;;;;12.55;4.07;;;;;;;4.15;100.00;102740.28;5022192;28;20047;-78
2022/02/11 06:47:43;;;;;;;14.38;4.88;;;;;;;4.08;100.00;102741.88;5021003;28;21131;-76
2022/02/11 06:50:13;;;;;;;15.32;3.15;;;;;;;3.98;100.00;102750.44;5019683;28;20063;-76
2022/02/11 06:52:41;;;;;;;22.05;3.75;;;;;;;3.92;100.00;102754.72;5018267;28;20103;-72
2022/02/11 06:55:10;;;;;;;17.92;3.45;;;;;;;3.88;100.00;102767.78;5021283;28;20398;-78
2022/02/11 06:57:42;;;;;;;17.13;4.68;;;;;;;3.80;100.00;102775.53;5018979;28;20061;-78
2022/02/11 07:00:14;;;;;;;15.23;3.13;;;;;;;3.85;100.00;102778.28;5024375;28;20170;-78
2022/02/11 07:02:44;;;;;;;18.45;4.97;;;;;;;3.87;100.00;102790.69;5020104;28;20382;-78
2022/02/11 07:05:13;;;;;;;17.20;3.92;;;;;;;3.97;100.00;102799.75;5021055;28;20144;-76
2022/02/11 07:07:41;;;;;;;15.23;3.47;;;;;;;3.98;100.00;102795.34;5019388;28;20148;-76
2022/02/11 07:10:10;;;;;;;16.15;3.67;;;;;;;3.94;100.00;102807.59;5020134;28;20098;-76
2022/02/11 07:12:40;;;;;;;17.75;3.90;;;;;;;4.00;100.00;102809.47;5021165;28;20048;-76
2022/02/11 07:15:09;;;;;;;21.98;4.18;;;;;;;3.98;100.00;102806.78;5019151;28;20041;-76
2022/02/11 07:17:37;;;;;;;17.70;3.50;;;;;;;3.92;100.00;102817.22;5019070;28;20093;-76
2022/02/11 07:20:07;;;;;;;12.40;3.17;;;;;;;3.94;100.00;102826.06;5018744;28;20065;-77
2022/02/11 07:22:35;;;;;;;17.90;3.75;;;;;;;3.93;100.00;102821.63;5020219;28;20061;-76
2022/02/11 07:25:04;;;;;;;16.90;3.80;;;;;;;3.92;100.00;102833.06;5021510;28;20056;-78
2022/02/11 07:27:32;;;;;;;9.38;2.95;;;;;;;3.92;100.00;102841.88;5016959;28;20065;-73
2022/02/11 07:30:21;;;;;;;19.65;3.33;;;;;;;3.92;100.00;102844.53;5020218;28;20512;-72
2022/02/11 07:32:51;;;;;;;14.73;2.65;;;;;;;3.94;100.00;102857.78;5021103;28;20081;-73
2022/02/11 07:35:20;;;;;;;22.17;4.07;;;;;;;3.94;100.00;102865.69;5020391;28;20057;-73
2022/02/11 07:37:49;;;;;;;14.98;3.30;;;;;;;3.88;100.00;102870.78;5019480;28;20061;-73
2022/02/11 07:40:17;;;;;;;25.50;4.05;;;;;;;3.94;100.00;102873.63;5017309;28;20363;-73
2022/02/11 07:42:51;;;;;;;15.93;4.00;;;;;;;3.92;100.00;102884.13;5015312;28;20064;-73
2022/02/11 07:45:24;;;;;;;20.27;3.83;;;;;;;3.96;100.00;102889.50;5018138;28;20669;-72
2022/02/11 07:47:54;;;;;;;16.67;3.65;;;;;;;4.02;100.00;102889.66;5050407;28;20141;-73
2022/02/11 07:50:22;;;;;;;14.80;3.42;;;;;;;3.99;100.00;102894.88;5019175;28;21678;-73
2022/02/11 07:52:51;;;;;;;20.23;4.20;;;;;;;3.99;100.00;102903.69;5015273;28;20096;-76
2022/02/11 07:55:19;;;;;;;21.95;3.88;;;;;;;4.09;100.00;102905.75;5019649;28;20045;-76
2022/02/11 07:57:47;;;;;;;12.73;3.25;;;;;;;4.29;100.00;102913.31;5015486;28;20057;-76
2022/02/11 08:00:16;;;;;;;20.83;4.65;;;;;;;4.32;100.00;102931.91;5017542;28;20146;-76
2022/02/11 08:02:45;;;;;;;19.77;3.42;;;;;;;4.03;100.00;102939.91;5018148;28;20076;-76
2022/02/11 08:05:14;;;;;;;21.30;3.08;;;;;;;3.82;100.00;102934.91;5018163;28;20544;-73
2022/02/11 08:07:44;;;;;;;8.65;2.28;;;;;;;3.71;100.00;102937.25;5013877;28;20176;-72
2022/02/11 08:10:12;;;;;;;11.07;2.92;;;;;;;3.66;100.00;102944.13;5020240;28;20060;-72
2022/02/11 08:12:40;;;;;;;16.65;3.17;;;;;;;3.67;100.00;102952.94;5018611;28;20140;-72
2022/02/11 08:15:09;;;;;;;16.35;3.40;;;;;;;3.78;100.00;102964.75;5017616;28;20053;-72
2022/02/11 08:17:40;;;;;;;13.23;3.40;;;;;;;3.63;100.00;102996.84;5015895;28;20045;-72
2022/02/11 08:20:10;;;;;;;15.88;2.70;;;;;;;3.30;100.00;102987.03;5017693;28;20418;-76
2022/02/11 08:22:38;;;;;;;17.92;2.95;;;;;;;3.31;100.00;102980.88;5017655;28;20551;-76
2022/02/11 08:25:07;;;;;;;10.40;2.72;;;;;;;3.28;100.00;102975.50;5017150;28;20493;-75
2022/02/11 08:27:35;;;;;;;14.48;2.90;;;;;;;3.48;100.00;102994.63;5018524;28;20053;-72
2022/02/11 08:30:04;;;;;;;12.85;3.03;;;;;;;3.49;100.00;102995.50;5016305;28;20045;-71
2022/02/11 08:32:32;;;;;;;14.70;2.75;;;;;;;3.53;100.00;103006.22;5016906;28;20065;-72
2022/02/11 08:35:00;;;;;;;12.85;3.22;;;;;;;3.52;100.00;103014.09;5014257;28;20468;-69
2022/02/11 08:37:29;;;;;;;13.85;2.97;;;;;;;3.55;100.00;103014.19;5020361;28;20045;-70
2022/02/11 08:39:58;;;;;;;14.80;3.45;;;;;;;3.61;100.00;103029.31;5014610;28;20053;-71
2022/02/11 08:42:26;;;;;;;10.63;2.60;;;;;;;3.80;100.00;103029.06;5019041;28;20053;-69
2022/02/11 08:44:57;;;;;;;14.45;3.17;;;;;;;3.86;100.00;103041.53;5016513;28;20049;-68
2022/02/11 08:47:27;;;;;;;15.57;2.95;;;;;;;3.96;100.00;103046.25;5016378;28;20057;-69
2022/02/11 08:49:55;;;;;;;21.15;4.20;;;;;;;4.01;100.00;103044.66;5017961;28;20136;-68
2022/02/11 08:52:27;;;;;;;10.25;2.95;;;;;;;4.09;100.00;103053.72;5016263;28;20047;-69
2022/02/11 08:54:58;;;;;;;15.55;3.53;;;;;;;4.16;100.00;103061.84;5016337;28;20843;-68
2022/02/11 08:57:29;;;;;;;13.07;2.97;;;;;;;4.26;89.33;103067.44;5016390;28;20191;-68
2022/02/11 08:59:58;;;;;;;14.65;2.90;;;;;;;4.27;90.42;103070.97;5018061;28;20478;-68
2022/02/11 09:02:27;;;;;;;12.10;2.63;;;;;;;4.32;88.92;103074.63;5017940;28;20522;-68
2022/02/11 09:04:59;;;;;;;10.75;2.50;;;;;;;4.38;89.75;103082.75;5033204;28;20049;-68
2022/02/11 09:07:29;;;;;;;9.60;2.50;;;;;;;4.44;89.09;103079.38;5015377;28;20073;-68
2022/02/11 09:10:00;;;;;;;19.30;4.10;;;;;;;4.54;86.55;103101.72;5016734;28;20489;-68
2022/02/11 09:12:29;;;;;;;11.00;2.95;;;;;;;4.62;76.38;103102.84;5016542;28;20041;-68
2022/02/11 09:15:01;;;;;;;8.13;2.10;;;;;;;4.72;73.25;103090.78;5016598;28;20060;-69
2022/02/11 09:17:35;;;;;;;10.18;2.70;;;;;;;4.79;72.70;103104.19;5015328;28;20042;-68
2022/02/11 09:20:07;;;;;;;14.23;2.92;;;;;;;4.85;72.16;103096.44;5014916;28;20657;-70
2022/02/11 09:22:38;;;;;;;13.70;2.75;;;;;;;5.01;72.65;103107.44;5016148;28;20053;-68
2022/02/11 09:25:24;;;;;;;10.45;2.60;;;;;;;5.16;74.07;103102.56;5015659;28;20053;-68
2022/02/11 09:27:53;;;;;;;14.13;3.33;;;;;;;5.21;73.46;103113.25;5013587;28;20493;-68
2022/02/11 09:30:28;;;;;;;10.07;2.67;;;;;;;5.23;73.10;103112.44;5018065;28;20536;-69
2022/02/11 09:33:00;;;;;;;17.23;3.22;;;;;;;5.32;73.48;103105.63;5018557;28;20060;-68
2022/02/11 09:35:32;;;;;;;13.23;2.95;;;;;;;5.42;72.28;103112.94;5013460;28;20574;-69
2022/02/11 09:38:14;;;;;;;14.05;3.20;;;;;;;5.50;70.33;103124.63;5015630;28;20071;-69
2022/02/11 09:41:09;;;;;;;14.20;2.40;;;;;;;5.71;68.51;103124.25;5017469;28;20069;-69
2022/02/11 09:43:40;;;;;;;9.43;2.92;;;;;;;5.75;66.85;103143.75;5017935;28;20522;-70
2022/02/11 09:46:13;;;;;;;10.05;2.17;;;;;;;5.40;68.12;103147.31;5016234;28;20064;-71
2022/02/11 09:48:44;;;;;;;9.00;2.35;;;;;;;5.09;71.08;103150.91;5015267;28;20057;-70
2022/02/11 09:51:18;;;;;;;15.57;3.92;;;;;;;4.91;70.13;103151.28;5018032;28;20851;-70
2022/02/11 09:53:58;;;;;;;20.27;4.53;;;;;;;4.82;70.63;103166.91;5023891;28;20484;-71
2022/02/11 09:56:36;;;;;;;10.50;2.72;;;;;;;4.77;71.54;103164.09;5018403;28;20052;-71
2022/02/11 09:59:10;;;;;;;7.18;2.65;;;;;;;5.07;71.08;103173.75;5016854;28;20045;-71
2022/02/11 10:01:41;;;;;;;13.40;2.80;;;;;;;5.30;69.60;103178.81;5015577;28;20119;-71
2022/02/11 10:04:16;;;;;;;17.23;3.47;;;;;;;5.55;69.94;103170.66;5015436;28;20080;-71
2022/02/11 10:06:53;;;;;;;12.05;2.65;;;;;;;5.76;68.36;103185.31;5014701;28;20060;-72
2022/02/11 10:09:28;;;;;;;14.65;2.83;;;;;;;5.75;64.89;103180.84;5014265;28;20057;-72
2022/02/11 10:12:03;;;;;;;11.93;2.92;;;;;;;5.82;63.13;103188.09;5018079;28;20056;-71
2022/02/11 10:14:36;;;;;;;8.07;2.10;;;;;;;5.83;57.65;103195.19;5046070;28;20489;-72
2022/02/11 10:17:08;;;;;;;9.45;2.03;;;;;;;5.91;57.81;103200.69;5014117;28;20079;-72
2022/02/11 10:19:41;;;;;;;12.77;2.97;;;;;;;6.00;58.41;103189.47;5013379;28;20073;-72
2022/02/11 10:22:14;;;;;;;15.95;2.47;;;;;;;6.17;59.35;103190.75;5012943;28;20050;-72
2022/02/11 10:24:51;;;;;;;24.02;2.80;;;;;;;6.18;58.10;103203.16;5014626;28;20058;-78
2022/02/11 10:27:24;;;;;;;8.40;1.92;;;;;;;6.25;58.74;103209.47;5016076;28;20049;-78
2022/02/11 10:29:55;;;;;;;10.53;2.13;;;;;;;6.41;57.73;103208.09;5017288;28;20073;-77
2022/02/11 10:32:43;;;;;;;9.45;2.30;;;;;;;6.45;58.11;103212.59;5020656;28;20061;-78
2022/02/11 10:35:14;;;;;;;;;;;;;;;6.50;58.16;103219.81;5020056;28;20057;-78
2022/02/11 10:38:05;;;;;;;14.13;2.22;;;;;;;6.26;56.35;103235.16;5018506;28;20004;-78
2022/02/11 10:40:35;;;;;;;11.60;3.28;;;;;;;6.14;56.13;103235.75;5018312;28;20056;-77
2022/02/11 10:43:04;;;;;;;8.90;2.83;;;;;;;5.86;54.74;103242.09;5018018;28;20081;-77
2022/02/11 10:45:37;;;;;;;9.00;3.67;;;;;;;6.03;55.02;103237.22;5020427;28;20087;-77
2022/02/11 10:48:09;;;;;;;10.40;3.00;;;;;;;6.09;56.04;103251.53;5021803;28;20052;-77
2022/02/11 10:50:38;;;;;;;10.80;2.08;;;;;;;6.41;56.52;103250.53;5020391;28;20075;-77
2022/02/11 10:53:08;;;;;;;9.55;2.40;;;;;;;6.57;57.18;103255.31;5022128;28;20084;-78
2022/02/11 10:55:48;;;;;;;22.60;3.33;;;;;;;6.49;57.63;103257.81;5020371;28;20057;-78
2022/02/11 10:58:20;;;;;;;10.73;2.38;;;;;;;6.63;59.06;103243.97;5019048;28;20361;-78
2022/02/11 11:00:48;;;;;;;9.75;2.22;;;;;;;6.68;60.05;103266.19;5019997;28;20136;-78
2022/02/11 11:03:17;;;;;;;13.48;2.67;;;;;;;6.30;59.77;103277.69;5020345;28;20438;-79
2022/02/11 11:05:46;;;;;;;14.60;2.78;;;;;;;6.21;62.53;103264.19;5019961;28;20580;-76
2022/02/11 11:08:16;;;;;;;17.40;3.13;;;;;;;6.24;63.23;103274.00;5021604;28;20273;-76
2022/02/11 11:10:46;;;;;;;10.30;2.75;;;;;;;6.09;63.26;103278.03;5017266;28;20145;-77
2022/02/11 11:13:15;;;;;;;6.03;2.20;;;;;;;6.05;61.89;103277.94;5020524;28;20140;-76
2022/02/11 11:15:46;;;;;;;10.90;2.30;;;;;;;6.46;60.39;103283.38;5017688;28;20121;-77
2022/02/11 11:18:18;;;;;;;12.02;2.33;;;;;;;6.74;60.37;103276.94;5019620;28;20136;-76
2022/02/11 11:20:57;;;;;;;15.00;2.60;;;;;;;7.09;62.25;103288.34;5022069;28;20135;-79
2022/02/11 11:23:27;;;;;;;9.93;2.28;;;;;;;6.49;58.25;103280.78;5018093;28;20490;-79
2022/02/11 11:26:02;;;;;;;16.67;2.53;;;;;;;6.49;58.93;103292.28;5021417;28;20053;-79
2022/02/11 11:28:45;;;;;;;11.63;2.70;;;;;;;6.10;59.49;103292.22;5020486;28;20088;-76
2022/02/11 11:31:18;;;;;;;11.30;2.33;;;;;;;5.70;59.77;103285.81;5018771;28;20108;-76
2022/02/11 11:33:46;;;;;;;15.40;3.60;;;;;;;6.02;60.21;103294.66;5018052;28;20373;-76
2022/02/11 11:36:16;;;;;;;5.97;1.90;;;;;;;5.82;59.19;103306.44;5019476;28;20053;-79
2022/02/11 11:38:46;;;;;;;7.47;2.53;;;;;;;5.86;59.27;103311.88;5020520;28;20046;-76
2022/02/11 11:41:20;;;;;;;12.55;2.67;;;;;;;6.33;57.88;103312.25;5019983;28;20116;-79
2022/02/11 11:43:50;;;;;;;;;;;;;;;6.36;58.53;103314.06;5017523;28;20053;-77
2022/02/11 11:46:32;;;;;;;16.02;4.20;;;;;;;6.33;57.04;103309.59;5020025;28;20020;-79
2022/02/11 11:49:04;;;;;;;14.10;2.22;;;;;;;6.62;57.08;103289.91;5020277;28;20073;-74
2022/02/11 11:52:11;;;;;;;11.90;2.30;;;;;;;6.84;56.91;103300.16;5019127;28;20045;-73
2022/02/11 11:54:45;;;;;;;10.93;2.22;;;;;;;6.45;55.61;103302.78;5019809;28;20699;-73
2022/02/11 11:57:18;;;;;;;12.50;2.45;;;;;;;6.60;55.50;103297.84;5019315;28;20057;-73
2022/02/11 11:59:50;;;;;;;11.10;2.30;;;;;;;6.91;57.34;103302.13;5020496;28;20076;-77
2022/02/11 12:02:20;;;;;;;7.60;2.00;;;;;;;6.72;52.87;103299.88;5018494;28;20081;-78
2022/02/11 12:04:53;;;;;;;9.15;2.10;;;;;;;6.97;54.18;103304.00;5018517;28;20405;-78
2022/02/11 12:07:23;;;;;;;10.15;2.10;;;;;;;6.96;52.93;103307.50;5019878;28;20103;-78
2022/02/11 12:09:55;;;;;;;11.32;2.28;;;;;;;7.18;52.34;103300.91;5017541;28;20077;-73
2022/02/11 12:12:27;;;;;;;14.07;3.25;;;;;;;6.97;51.63;103304.00;5018027;28;20694;-73
2022/02/11 12:15:03;;;;;;;7.13;2.05;;;;;;;7.28;51.99;103312.63;5016951;28;20077;-72
2022/02/11 12:17:35;;;;;;;9.43;1.98;;;;;;;7.34;52.89;103298.56;5047818;28;20095;-73
2022/02/11 12:20:09;;;;;;;10.43;2.70;;;;;;;6.97;52.75;103311.97;5017785;28;20076;-74
2022/02/11 12:27:19;;;;;;;7.63;2.22;;;;;;;6.57;53.57;103316.34;5016538;28;20100;-73
2022/02/11 12:28:22;;;;;;;7.07;1.95;;;;;;;6.38;55.52;103320.28;5017541;28;20500;-74
2022/02/11 12:30:53;;;;;;;7.97;3.40;;;;;;;6.79;54.21;103316.84;5018144;28;20072;-74
2022/02/11 12:33:25;;;;;;;9.75;2.45;;;;;;;6.71;54.60;103327.31;5018742;28;20057;-74
2022/02/11 12:36:11;;;;;;;7.30;3.00;;;;;;;6.73;53.20;103315.84;5018804;28;20163;-74
2022/02/11 12:38:41;;;;;;;11.48;3.67;;;;;;;6.65;53.13;103320.06;5018935;28;20049;-74
2022/02/11 12:41:11;;;;;;;10.45;2.15;;;;;;;6.86;53.77;103325.00;5019066;28;20056;-73
2022/02/11 12:43:41;;;;;;;9.40;2.47;;;;;;;7.06;53.99;103322.78;5016910;28;20810;-73
2022/02/11 12:46:11;;;;;;;12.35;3.03;;;;;;;6.96;54.25;103318.13;5014933;28;20049;-73
2022/02/11 12:48:46;;;;;;;12.55;3.13;;;;;;;6.89;54.35;103333.00;5020935;28;20074;-72
2022/02/11 12:51:20;;;;;;;10.48;2.15;;;;;;;6.71;54.09;103322.00;5016193;28;20066;-73
2022/02/11 12:54:08;;;;;;;7.78;2.63;;;;;;;6.52;55.00;103326.84;5018343;28;20132;-74
2022/02/11 12:56:41;;;;;;;9.98;2.30;;;;;;;6.43;56.01;103323.97;5017876;28;20056;-74
2022/02/11 12:59:14;;;;;;;7.30;2.15;;;;;;;5.72;64.85;103335.34;5019056;28;20131;-73
2022/02/11 13:01:48;;;;;;;7.27;2.17;;;;;;;5.19;77.43;103353.19;5017878;28;20372;-74
2022/02/11 13:04:24;;;;;;;7.72;1.90;;;;;;;4.79;85.69;103351.97;5016068;28;20294;-69
2022/02/11 13:06:54;;;;;;;9.95;2.22;;;;;;;4.60;86.83;103339.91;5017455;28;20497;-68
2022/02/11 13:09:26;;;;;;;13.85;2.67;;;;;;;4.81;85.35;103342.34;5017580;28;20057;-72
2022/02/11 13:12:07;;;;;;;10.27;2.30;;;;;;;4.83;86.17;103348.56;5023780;28;21027;-71
2022/02/11 13:14:42;;;;;;;8.95;2.25;;;;;;;4.89;85.68;103361.06;5018443;28;20287;-69
2022/02/11 13:17:12;;;;;;;6.07;1.98;;;;;;;4.78;84.84;103360.75;5017765;28;20133;-68
2022/02/11 13:19:42;;;;;;;9.27;1.70;;;;;;;4.80;85.26;103357.31;5017273;28;20095;-69
2022/02/11 13:22:11;;;;;;;9.20;1.95;;;;;;;4.92;86.24;103362.09;5016507;28;20049;-70
2022/02/11 13:24:39;;;;;;;7.35;1.83;;;;;;;5.09;87.30;103369.66;5017898;28;20049;-70
2022/02/11 13:27:07;;;;;;;8.93;1.90;;;;;;;4.72;86.32;103366.75;5015839;28;20065;-69
2022/02/11 13:29:35;;;;;;;5.97;1.65;;;;;;;4.81;88.95;103374.06;5017030;28;20041;-68
2022/02/11 13:32:05;;;;;;;8.43;1.80;;;;;;;4.80;89.10;103367.91;5016511;28;20092;-69
2022/02/11 13:34:33;;;;;;;6.18;1.92;;;;;;;4.99;90.77;103360.56;5013968;28;20072;-69
2022/02/11 13:37:07;;;;;;;7.60;2.05;;;;;;;4.96;90.65;103371.91;5018161;28;20166;-72
2022/02/11 13:39:35;;;;;;;9.98;2.45;;;;;;;5.04;90.60;103374.81;5016849;28;20115;-71
2022/02/11 13:42:12;;;;;;;10.57;2.45;;;;;;;5.09;91.84;103378.50;5017768;28;20119;-69
2022/02/11 13:44:40;;;;;;;7.07;2.20;;;;;;;5.08;91.53;103371.41;5015380;28;21795;-69
2022/02/11 13:47:17;;;;;;;13.00;2.65;;;;;;;5.15;91.99;103367.19;5016145;28;20065;-70
2022/02/11 13:49:51;;;;;;;11.23;2.25;;;;;;;5.12;90.71;103375.94;5019833;28;20105;-69
2022/02/11 13:55:09;;;;;;;8.32;2.30;;;;;;;5.30;90.37;103372.06;5018330;28;20543;-70
2022/02/11 13:57:38;;;;;;;6.40;1.92;;;;;;;5.52;90.16;103373.63;5018675;28;20442;-70
2022/02/11 14:00:24;;;;;;;10.75;2.80;;;;;;;5.63;89.12;103372.16;5018907;28;20049;-70
2022/02/11 14:02:53;;;;;;;8.40;2.42;;;;;;;5.57;87.13;103372.00;5016948;28;20046;-69
2022/02/11 14:05:29;;;;;;;4.53;2.03;;;;;;;5.65;86.81;103369.56;5019316;28;20049;-69
2022/02/11 14:08:00;;;;;;;9.10;2.38;;;;;;;5.84;85.20;103366.59;5027916;28;20110;-69
2022/02/11 14:10:28;;;;;;;7.97;1.88;;;;;;;5.79;83.12;103361.16;5022641;28;20453;-69
2022/02/11 14:13:07;;;;;;;8.00;2.28;;;;;;;5.85;83.07;103368.38;5019034;28;20045;-69
2022/02/11 14:15:37;;;;;;;9.18;1.95;;;;;;;6.13;81.88;103375.38;5023283;28;20053;-69
2022/02/11 14:18:07;;;;;;;7.40;1.73;;;;;;;6.16;81.10;103370.16;5019664;28;20425;-70
2022/02/11 14:20:37;;;;;;;7.65;2.10;;;;;;;6.49;80.89;103371.88;5022127;28;20176;-69
2022/02/11 14:23:24;;;;;;;14.27;2.75;;;;;;;6.11;79.16;103370.84;5021044;28;20415;-69
2022/02/11 14:25:55;;;;;;;8.85;2.17;;;;;;;5.99;79.85;103382.03;5022834;28;20084;-69
2022/02/11 14:28:26;;;;;;;13.35;2.30;;;;;;;5.99;80.44;103387.31;5019807;28;20088;-69
2022/02/11 14:30:58;;;;;;;9.45;2.35;;;;;;;5.94;79.86;103395.13;5018811;28;20547;-69
2022/02/11 14:33:28;;;;;;;10.73;2.10;;;;;;;5.95;78.94;103388.97;5020252;28;20100;-70
2022/02/11 14:35:57;;;;;;;6.70;2.17;;;;;;;5.89;76.42;103393.19;5022610;28;20117;-69
2022/02/11 14:38:31;;;;;;;8.60;2.55;;;;;;;5.85;77.38;103397.50;5018002;28;20529;-69
2022/02/11 14:43:46;;;;;;;9.73;2.45;;;;;;;5.77;75.59;103388.44;5017650;28;20085;-68
2022/02/11 14:46:16;;;;;;;10.35;2.17;;;;;;;5.82;75.89;103394.75;5019901;28;20506;-68
2022/02/11 14:48:45;;;;;;;8.82;1.95;;;;;;;5.77;76.42;103393.75;5001939;28;20053;-69
2022/02/11 14:51:16;;;;;;;11.65;2.60;;;;;;;6.17;78.39;103400.19;5017160;28;20507;-68
2022/02/11 14:53:48;;;;;;;5.05;1.73;;;;;;;6.14;74.87;103405.41;5019898;28;20049;-68